sensor_id;sensor_type;location;lat;lon;timestamp;P1;durP1;ratioP1;P2;durP2;ratioP2
32032;SDS011;31720;52.638;9.216;2023-03-31T00:01:27;11.82;;;3.45;;
32032;SDS011;31720;52.638;9.216;2023-03-31T00:04:29;8.10;;;3.60;;
32032;SDS011;31720;52.638;9.216;2023-03-31T00:07:31;4.63;;;2.72;;
32032;SDS011;31720;52.638;9.216;2023-03-31T00:10:33;18.88;;;3.42;;
32032;SDS011;31720;52.638;9.216;2023-03-31T00:13:38;10.95;;;3.58;;
32032;SDS011;31720;52.638;9.216;2023-03-31T00:16:40;11.20;;;3.30;;
32032;SDS011;31720;52.638;9.216;2023-03-31T00:19:41;6.13;;;2.85;;
32032;SDS011;31720;52.638;9.216;2023-03-31T00:22:43;7.65;;;3.25;;
32032;SDS011;31720;52.638;9.216;2023-03-31T00:25:45;6.13;;;2.95;;
32032;SDS011;31720;52.638;9.216;2023-03-31T00:28:48;6.70;;;3.05;;
32032;SDS011;31720;52.638;9.216;2023-03-31T00:31:50;8.93;;;3.65;;
32032;SDS011;31720;52.638;9.216;2023-03-31T00:34:51;6.30;;;3.17;;
32032;SDS011;31720;52.638;9.216;2023-03-31T00:37:53;7.90;;;2.53;;
32032;SDS011;31720;52.638;9.216;2023-03-31T00:40:57;8.65;;;2.95;;
32032;SDS011;31720;52.638;9.216;2023-03-31T00:44:05;10.02;;;3.08;;
32032;SDS011;31720;52.638;9.216;2023-03-31T00:47:09;3.80;;;1.80;;
32032;SDS011;31720;52.638;9.216;2023-03-31T00:50:17;6.75;;;2.42;;
32032;SDS011;31720;52.638;9.216;2023-03-31T00:53:22;3.90;;;1.90;;
32032;SDS011;31720;52.638;9.216;2023-03-31T00:56:27;6.50;;;2.42;;
32032;SDS011;31720;52.638;9.216;2023-03-31T00:59:36;4.68;;;2.13;;
32032;SDS011;31720;52.638;9.216;2023-03-31T01:02:40;10.27;;;2.50;;
32032;SDS011;31720;52.638;9.216;2023-03-31T01:05:52;8.45;;;3.03;;
32032;SDS011;31720;52.638;9.216;2023-03-31T01:08:56;5.72;;;2.00;;
32032;SDS011;31720;52.638;9.216;2023-03-31T01:11:57;11.52;;;1.90;;
32032;SDS011;31720;52.638;9.216;2023-03-31T01:15:00;3.45;;;1.85;;
32032;SDS011;31720;52.638;9.216;2023-03-31T01:18:03;10.07;;;2.78;;
32032;SDS011;31720;52.638;9.216;2023-03-31T01:21:16;3.78;;;1.77;;
32032;SDS011;31720;52.638;9.216;2023-03-31T01:28:17;5.03;;;2.15;;
32032;SDS011;31720;52.638;9.216;2023-03-31T01:31:42;5.18;;;1.98;;
32032;SDS011;31720;52.638;9.216;2023-03-31T01:42:14;8.07;;;2.17;;
32032;SDS011;31720;52.638;9.216;2023-03-31T01:45:24;5.25;;;2.10;;
32032;SDS011;31720;52.638;9.216;2023-03-31T01:48:35;5.53;;;1.85;;
32032;SDS011;31720;52.638;9.216;2023-03-31T01:51:45;11.75;;;3.67;;
32032;SDS011;31720;52.638;9.216;2023-03-31T01:54:57;4.45;;;2.03;;
32032;SDS011;31720;52.638;9.216;2023-03-31T01:58:08;8.65;;;1.73;;
32032;SDS011;31720;52.638;9.216;2023-03-31T02:01:13;6.95;;;1.35;;
32032;SDS011;31720;52.638;9.216;2023-03-31T02:04:19;7.28;;;2.08;;
32032;SDS011;31720;52.638;9.216;2023-03-31T02:07:23;4.47;;;2.03;;
32032;SDS011;31720;52.638;9.216;2023-03-31T02:10:29;4.57;;;1.75;;
32032;SDS011;31720;52.638;9.216;2023-03-31T02:13:34;7.95;;;1.80;;
32032;SDS011;31720;52.638;9.216;2023-03-31T02:16:39;6.78;;;2.20;;
32032;SDS011;31720;52.638;9.216;2023-03-31T02:19:46;4.60;;;2.10;;
32032;SDS011;31720;52.638;9.216;2023-03-31T02:22:51;6.43;;;2.20;;
32032;SDS011;31720;52.638;9.216;2023-03-31T02:25:56;6.30;;;1.60;;
32032;SDS011;31720;52.638;9.216;2023-03-31T02:29:04;7.78;;;2.95;;
32032;SDS011;31720;52.638;9.216;2023-03-31T02:32:07;3.85;;;2.00;;
32032;SDS011;31720;52.638;9.216;2023-03-31T02:35:15;9.10;;;2.47;;
32032;SDS011;31720;52.638;9.216;2023-03-31T02:38:18;5.88;;;3.08;;
32032;SDS011;31720;52.638;9.216;2023-03-31T02:41:19;5.82;;;1.63;;
32032;SDS011;31720;52.638;9.216;2023-03-31T02:44:22;5.80;;;1.70;;
32032;SDS011;31720;52.638;9.216;2023-03-31T02:47:24;4.57;;;2.08;;
32032;SDS011;31720;52.638;9.216;2023-03-31T02:50:26;10.25;;;1.80;;
32032;SDS011;31720;52.638;9.216;2023-03-31T02:53:37;4.28;;;2.53;;
32032;SDS011;31720;52.638;9.216;2023-03-31T02:56:53;6.57;;;2.10;;
32032;SDS011;31720;52.638;9.216;2023-03-31T03:00:18;5.68;;;1.92;;
32032;SDS011;31720;52.638;9.216;2023-03-31T03:03:28;7.68;;;2.00;;
32032;SDS011;31720;52.638;9.216;2023-03-31T03:06:41;5.10;;;1.80;;
32032;SDS011;31720;52.638;9.216;2023-03-31T03:09:56;7.03;;;1.65;;
32032;SDS011;31720;52.638;9.216;2023-03-31T03:13:05;8.02;;;2.42;;
32032;SDS011;31720;52.638;9.216;2023-03-31T03:16:17;4.65;;;1.55;;
32032;SDS011;31720;52.638;9.216;2023-03-31T03:19:23;4.68;;;1.45;;
32032;SDS011;31720;52.638;9.216;2023-03-31T03:22:25;5.80;;;1.70;;
32032;SDS011;31720;52.638;9.216;2023-03-31T03:25:27;4.90;;;1.73;;
32032;SDS011;31720;52.638;9.216;2023-03-31T03:28:29;4.43;;;1.20;;
32032;SDS011;31720;52.638;9.216;2023-03-31T03:31:32;1.67;;;1.27;;
32032;SDS011;31720;52.638;9.216;2023-03-31T03:34:33;2.47;;;1.27;;
32032;SDS011;31720;52.638;9.216;2023-03-31T03:37:35;2.60;;;0.90;;
32032;SDS011;31720;52.638;9.216;2023-03-31T03:40:37;5.53;;;1.50;;
32032;SDS011;31720;52.638;9.216;2023-03-31T03:43:38;3.72;;;1.20;;
32032;SDS011;31720;52.638;9.216;2023-03-31T03:46:41;2.72;;;1.08;;
32032;SDS011;31720;52.638;9.216;2023-03-31T03:49:42;4.65;;;1.05;;
32032;SDS011;31720;52.638;9.216;2023-03-31T03:52:43;7.05;;;1.02;;
32032;SDS011;31720;52.638;9.216;2023-03-31T03:55:45;4.68;;;1.10;;
32032;SDS011;31720;52.638;9.216;2023-03-31T03:58:47;2.40;;;0.98;;
32032;SDS011;31720;52.638;9.216;2023-03-31T04:01:51;2.35;;;0.90;;
32032;SDS011;31720;52.638;9.216;2023-03-31T04:04:52;3.35;;;1.10;;
32032;SDS011;31720;52.638;9.216;2023-03-31T04:07:53;1.23;;;0.90;;
32032;SDS011;31720;52.638;9.216;2023-03-31T04:10:55;3.70;;;1.38;;
32032;SDS011;31720;52.638;9.216;2023-03-31T04:13:56;5.05;;;1.65;;
32032;SDS011;31720;52.638;9.216;2023-03-31T04:16:59;2.92;;;1.30;;
32032;SDS011;31720;52.638;9.216;2023-03-31T04:20:01;8.02;;;2.70;;
32032;SDS011;31720;52.638;9.216;2023-03-31T04:23:06;4.30;;;1.48;;
32032;SDS011;31720;52.638;9.216;2023-03-31T04:26:08;2.28;;;1.13;;
32032;SDS011;31720;52.638;9.216;2023-03-31T04:29:10;2.25;;;0.90;;
32032;SDS011;31720;52.638;9.216;2023-03-31T04:32:14;2.38;;;0.77;;
32032;SDS011;31720;52.638;9.216;2023-03-31T04:35:20;3.63;;;0.93;;
32032;SDS011;31720;52.638;9.216;2023-03-31T04:38:23;5.32;;;1.55;;
32032;SDS011;31720;52.638;9.216;2023-03-31T04:44:33;2.45;;;0.90;;
32032;SDS011;31720;52.638;9.216;2023-03-31T04:47:36;3.60;;;0.75;;
32032;SDS011;31720;52.638;9.216;2023-03-31T04:50:37;1.42;;;0.55;;
32032;SDS011;31720;52.638;9.216;2023-03-31T04:53:39;1.33;;;0.90;;
32032;SDS011;31720;52.638;9.216;2023-03-31T04:56:40;2.38;;;0.80;;
32032;SDS011;31720;52.638;9.216;2023-03-31T04:59:42;2.00;;;0.75;;
32032;SDS011;31720;52.638;9.216;2023-03-31T05:02:44;4.25;;;0.70;;
32032;SDS011;31720;52.638;9.216;2023-03-31T05:05:46;1.65;;;0.70;;
32032;SDS011;31720;52.638;9.216;2023-03-31T05:08:47;6.40;;;0.68;;
32032;SDS011;31720;52.638;9.216;2023-03-31T05:11:48;2.40;;;0.85;;
32032;SDS011;31720;52.638;9.216;2023-03-31T05:14:50;8.60;;;0.82;;
32032;SDS011;31720;52.638;9.216;2023-03-31T05:17:53;3.70;;;1.08;;
32032;SDS011;31720;52.638;9.216;2023-03-31T05:20:55;2.38;;;0.88;;
32032;SDS011;31720;52.638;9.216;2023-03-31T05:23:56;6.75;;;0.93;;
32032;SDS011;31720;52.638;9.216;2023-03-31T05:26:58;4.93;;;0.85;;
32032;SDS011;31720;52.638;9.216;2023-03-31T05:29:59;4.60;;;1.10;;
32032;SDS011;31720;52.638;9.216;2023-03-31T05:33:02;4.85;;;1.20;;
32032;SDS011;31720;52.638;9.216;2023-03-31T05:36:03;1.90;;;1.10;;
32032;SDS011;31720;52.638;9.216;2023-03-31T05:39:05;3.33;;;1.30;;
32032;SDS011;31720;52.638;9.216;2023-03-31T05:42:07;5.05;;;1.20;;
32032;SDS011;31720;52.638;9.216;2023-03-31T05:45:09;4.15;;;0.93;;
32032;SDS011;31720;52.638;9.216;2023-03-31T05:48:12;4.30;;;1.15;;
32032;SDS011;31720;52.638;9.216;2023-03-31T05:51:14;5.70;;;0.90;;
32032;SDS011;31720;52.638;9.216;2023-03-31T05:54:15;7.75;;;1.05;;
32032;SDS011;31720;52.638;9.216;2023-03-31T05:57:16;3.47;;;0.90;;
32032;SDS011;31720;52.638;9.216;2023-03-31T06:00:18;5.03;;;1.00;;
32032;SDS011;31720;52.638;9.216;2023-03-31T06:03:21;2.10;;;0.65;;
32032;SDS011;31720;52.638;9.216;2023-03-31T06:06:22;7.15;;;1.35;;
32032;SDS011;31720;52.638;9.216;2023-03-31T06:09:24;7.85;;;0.90;;
32032;SDS011;31720;52.638;9.216;2023-03-31T06:12:27;2.22;;;0.90;;
32032;SDS011;31720;52.638;9.216;2023-03-31T06:15:28;4.18;;;1.08;;
32032;SDS011;31720;52.638;9.216;2023-03-31T06:18:32;0.52;;;0.40;;
32032;SDS011;31720;52.638;9.216;2023-03-31T06:21:35;1.05;;;0.50;;
32032;SDS011;31720;52.638;9.216;2023-03-31T06:24:36;2.17;;;1.05;;
32032;SDS011;31720;52.638;9.216;2023-03-31T06:27:37;4.53;;;0.80;;
32032;SDS011;31720;52.638;9.216;2023-03-31T06:30:39;5.60;;;1.10;;
32032;SDS011;31720;52.638;9.216;2023-03-31T06:33:42;5.55;;;1.30;;
32032;SDS011;31720;52.638;9.216;2023-03-31T06:36:44;5.28;;;1.38;;
32032;SDS011;31720;52.638;9.216;2023-03-31T06:39:45;9.35;;;1.23;;
32032;SDS011;31720;52.638;9.216;2023-03-31T06:42:48;3.17;;;0.85;;
32032;SDS011;31720;52.638;9.216;2023-03-31T06:45:51;3.28;;;0.75;;
32032;SDS011;31720;52.638;9.216;2023-03-31T06:48:54;1.30;;;0.68;;
32032;SDS011;31720;52.638;9.216;2023-03-31T06:51:55;1.63;;;0.85;;
32032;SDS011;31720;52.638;9.216;2023-03-31T06:54:56;2.72;;;1.10;;
32032;SDS011;31720;52.638;9.216;2023-03-31T06:57:59;1.65;;;1.02;;
32032;SDS011;31720;52.638;9.216;2023-03-31T07:01:01;2.67;;;0.82;;
32032;SDS011;31720;52.638;9.216;2023-03-31T07:04:04;1.98;;;0.75;;
32032;SDS011;31720;52.638;9.216;2023-03-31T07:07:06;1.52;;;0.80;;
32032;SDS011;31720;52.638;9.216;2023-03-31T07:10:07;2.88;;;0.68;;
32032;SDS011;31720;52.638;9.216;2023-03-31T07:13:08;3.55;;;1.23;;
32032;SDS011;31720;52.638;9.216;2023-03-31T07:16:10;1.55;;;0.75;;
32032;SDS011;31720;52.638;9.216;2023-03-31T07:19:14;7.97;;;0.95;;
32032;SDS011;31720;52.638;9.216;2023-03-31T07:22:15;5.32;;;0.82;;
32032;SDS011;31720;52.638;9.216;2023-03-31T07:25:17;3.38;;;1.25;;
32032;SDS011;31720;52.638;9.216;2023-03-31T07:28:18;2.25;;;1.10;;
32032;SDS011;31720;52.638;9.216;2023-03-31T07:31:19;2.85;;;0.90;;
32032;SDS011;31720;52.638;9.216;2023-03-31T07:34:22;1.35;;;0.65;;
32032;SDS011;31720;52.638;9.216;2023-03-31T07:37:24;1.45;;;0.70;;
32032;SDS011;31720;52.638;9.216;2023-03-31T07:40:26;3.03;;;1.27;;
32032;SDS011;31720;52.638;9.216;2023-03-31T07:43:29;1.77;;;0.82;;
32032;SDS011;31720;52.638;9.216;2023-03-31T07:46:30;1.65;;;0.70;;
32032;SDS011;31720;52.638;9.216;2023-03-31T07:49:33;0.70;;;0.68;;
32032;SDS011;31720;52.638;9.216;2023-03-31T07:52:35;0.90;;;0.75;;
32032;SDS011;31720;52.638;9.216;2023-03-31T07:55:37;4.45;;;0.93;;
32032;SDS011;31720;52.638;9.216;2023-03-31T07:58:38;3.20;;;0.98;;
32032;SDS011;31720;52.638;9.216;2023-03-31T08:01:39;1.30;;;0.65;;
32032;SDS011;31720;52.638;9.216;2023-03-31T08:04:42;1.38;;;0.80;;
32032;SDS011;31720;52.638;9.216;2023-03-31T08:07:46;1.88;;;0.82;;
32032;SDS011;31720;52.638;9.216;2023-03-31T08:10:48;3.35;;;0.88;;
32032;SDS011;31720;52.638;9.216;2023-03-31T08:13:50;5.68;;;1.15;;
32032;SDS011;31720;52.638;9.216;2023-03-31T08:16:52;3.58;;;1.10;;
32032;SDS011;31720;52.638;9.216;2023-03-31T08:19:55;0.85;;;0.50;;
32032;SDS011;31720;52.638;9.216;2023-03-31T08:22:57;1.27;;;0.73;;
32032;SDS011;31720;52.638;9.216;2023-03-31T08:26:06;1.27;;;0.88;;
32032;SDS011;31720;52.638;9.216;2023-03-31T08:29:09;2.50;;;1.65;;
32032;SDS011;31720;52.638;9.216;2023-03-31T08:32:10;3.05;;;0.88;;
32032;SDS011;31720;52.638;9.216;2023-03-31T08:35:13;1.92;;;0.65;;
32032;SDS011;31720;52.638;9.216;2023-03-31T08:38:15;5.43;;;1.05;;
32032;SDS011;31720;52.638;9.216;2023-03-31T08:41:21;2.00;;;1.02;;
32032;SDS011;31720;52.638;9.216;2023-03-31T08:44:30;2.42;;;1.10;;
32032;SDS011;31720;52.638;9.216;2023-03-31T08:47:36;5.75;;;0.98;;
32032;SDS011;31720;52.638;9.216;2023-03-31T08:50:42;4.05;;;1.02;;
32032;SDS011;31720;52.638;9.216;2023-03-31T08:53:48;2.33;;;1.08;;
32032;SDS011;31720;52.638;9.216;2023-03-31T08:56:52;2.47;;;1.25;;
32032;SDS011;31720;52.638;9.216;2023-03-31T08:59:54;5.30;;;1.35;;
32032;SDS011;31720;52.638;9.216;2023-03-31T09:02:58;3.35;;;1.10;;
32032;SDS011;31720;52.638;9.216;2023-03-31T09:06:04;1.30;;;1.02;;
32032;SDS011;31720;52.638;9.216;2023-03-31T09:09:14;4.57;;;1.30;;
32032;SDS011;31720;52.638;9.216;2023-03-31T09:12:28;4.63;;;1.40;;
32032;SDS011;31720;52.638;9.216;2023-03-31T09:15:37;2.15;;;0.90;;
32032;SDS011;31720;52.638;9.216;2023-03-31T09:18:43;5.13;;;1.27;;
32032;SDS011;31720;52.638;9.216;2023-03-31T09:21:47;3.33;;;1.05;;
32032;SDS011;31720;52.638;9.216;2023-03-31T09:24:54;2.35;;;1.23;;
32032;SDS011;31720;52.638;9.216;2023-03-31T09:27:58;4.45;;;0.85;;
32032;SDS011;31720;52.638;9.216;2023-03-31T09:31:03;6.07;;;1.05;;
32032;SDS011;31720;52.638;9.216;2023-03-31T09:34:14;2.92;;;0.95;;
32032;SDS011;31720;52.638;9.216;2023-03-31T09:37:18;2.00;;;1.83;;
32032;SDS011;31720;52.638;9.216;2023-03-31T09:40:21;1.67;;;0.57;;
32032;SDS011;31720;52.638;9.216;2023-03-31T09:43:25;2.70;;;0.88;;
32032;SDS011;31720;52.638;9.216;2023-03-31T09:46:28;5.50;;;0.75;;
32032;SDS011;31720;52.638;9.216;2023-03-31T09:49:32;1.58;;;0.77;;
32032;SDS011;31720;52.638;9.216;2023-03-31T09:52:38;4.30;;;1.00;;
32032;SDS011;31720;52.638;9.216;2023-03-31T09:55:42;1.35;;;0.82;;
32032;SDS011;31720;52.638;9.216;2023-03-31T09:58:45;0.68;;;0.60;;
32032;SDS011;31720;52.638;9.216;2023-03-31T10:01:46;2.40;;;0.82;;
32032;SDS011;31720;52.638;9.216;2023-03-31T10:04:50;6.15;;;0.88;;
32032;SDS011;31720;52.638;9.216;2023-03-31T10:07:54;1.23;;;0.73;;
32032;SDS011;31720;52.638;9.216;2023-03-31T10:11:18;5.40;;;0.80;;
32032;SDS011;31720;52.638;9.216;2023-03-31T10:14:23;3.60;;;1.05;;
32032;SDS011;31720;52.638;9.216;2023-03-31T10:17:26;1.90;;;1.15;;
32032;SDS011;31720;52.638;9.216;2023-03-31T10:20:32;3.65;;;1.02;;
32032;SDS011;31720;52.638;9.216;2023-03-31T10:23:38;1.13;;;0.70;;
32032;SDS011;31720;52.638;9.216;2023-03-31T10:26:46;3.08;;;0.98;;
32032;SDS011;31720;52.638;9.216;2023-03-31T10:29:50;0.93;;;0.73;;
32032;SDS011;31720;52.638;9.216;2023-03-31T10:32:52;3.35;;;0.90;;
32032;SDS011;31720;52.638;9.216;2023-03-31T10:35:54;1.60;;;0.80;;
32032;SDS011;31720;52.638;9.216;2023-03-31T10:38:58;1.75;;;1.00;;
32032;SDS011;31720;52.638;9.216;2023-03-31T10:42:05;1.85;;;1.58;;
32032;SDS011;31720;52.638;9.216;2023-03-31T10:45:11;2.25;;;0.85;;
32032;SDS011;31720;52.638;9.216;2023-03-31T10:48:17;1.67;;;0.90;;
32032;SDS011;31720;52.638;9.216;2023-03-31T10:51:20;1.92;;;0.90;;
32032;SDS011;31720;52.638;9.216;2023-03-31T10:54:28;1.85;;;1.13;;
32032;SDS011;31720;52.638;9.216;2023-03-31T10:57:31;3.70;;;1.02;;
32032;SDS011;31720;52.638;9.216;2023-03-31T11:00:41;3.58;;;1.02;;
32032;SDS011;31720;52.638;9.216;2023-03-31T11:04:00;0.80;;;0.80;;
32032;SDS011;31720;52.638;9.216;2023-03-31T11:07:12;2.15;;;0.80;;
32032;SDS011;31720;52.638;9.216;2023-03-31T11:10:28;0.95;;;0.85;;
32032;SDS011;31720;52.638;9.216;2023-03-31T11:13:38;3.17;;;1.13;;
32032;SDS011;31720;52.638;9.216;2023-03-31T11:16:45;5.30;;;1.20;;
32032;SDS011;31720;52.638;9.216;2023-03-31T11:19:54;3.40;;;0.98;;
32032;SDS011;31720;52.638;9.216;2023-03-31T11:23:07;1.55;;;1.10;;
32032;SDS011;31720;52.638;9.216;2023-03-31T11:26:20;3.05;;;0.80;;
32032;SDS011;31720;52.638;9.216;2023-03-31T11:29:30;0.85;;;0.85;;
32032;SDS011;31720;52.638;9.216;2023-03-31T11:32:40;1.52;;;1.10;;
32032;SDS011;31720;52.638;9.216;2023-03-31T11:35:51;1.27;;;0.90;;
32032;SDS011;31720;52.638;9.216;2023-03-31T11:39:10;1.35;;;0.77;;
32032;SDS011;31720;52.638;9.216;2023-03-31T11:42:24;2.10;;;1.03;;
32032;SDS011;31720;52.638;9.216;2023-03-31T11:45:29;2.85;;;1.08;;
32032;SDS011;31720;52.638;9.216;2023-03-31T11:48:37;1.42;;;1.00;;
32032;SDS011;31720;52.638;9.216;2023-03-31T11:51:42;1.52;;;0.98;;
32032;SDS011;31720;52.638;9.216;2023-03-31T11:54:49;2.75;;;1.27;;
32032;SDS011;31720;52.638;9.216;2023-03-31T11:57:58;2.05;;;1.13;;
32032;SDS011;31720;52.638;9.216;2023-03-31T12:01:06;1.00;;;0.80;;
32032;SDS011;31720;52.638;9.216;2023-03-31T12:04:18;1.75;;;0.75;;
32032;SDS011;31720;52.638;9.216;2023-03-31T12:07:29;5.03;;;1.00;;
32032;SDS011;31720;52.638;9.216;2023-03-31T12:10:35;1.98;;;1.08;;
32032;SDS011;31720;52.638;9.216;2023-03-31T12:13:42;7.18;;;3.75;;
32032;SDS011;31720;52.638;9.216;2023-03-31T12:16:48;1.42;;;1.17;;
32032;SDS011;31720;52.638;9.216;2023-03-31T12:19:53;2.78;;;0.95;;
32032;SDS011;31720;52.638;9.216;2023-03-31T12:22:58;4.43;;;1.20;;
32032;SDS011;31720;52.638;9.216;2023-03-31T12:26:02;2.83;;;1.25;;
32032;SDS011;31720;52.638;9.216;2023-03-31T12:29:16;3.25;;;0.82;;
32032;SDS011;31720;52.638;9.216;2023-03-31T12:32:26;7.95;;;1.63;;
32032;SDS011;31720;52.638;9.216;2023-03-31T12:35:32;1.00;;;0.80;;
32032;SDS011;31720;52.638;9.216;2023-03-31T12:38:48;3.33;;;1.10;;
32032;SDS011;31720;52.638;9.216;2023-03-31T12:42:00;1.55;;;0.90;;
32032;SDS011;31720;52.638;9.216;2023-03-31T12:45:14;1.13;;;0.82;;
32032;SDS011;31720;52.638;9.216;2023-03-31T12:51:59;4.05;;;1.15;;
32032;SDS011;31720;52.638;9.216;2023-03-31T12:58:37;1.40;;;0.98;;
32032;SDS011;31720;52.638;9.216;2023-03-31T13:02:10;1.63;;;1.05;;
32032;SDS011;31720;52.638;9.216;2023-03-31T13:08:50;2.25;;;1.30;;
32032;SDS011;31720;52.638;9.216;2023-03-31T13:11:53;3.40;;;1.45;;
32032;SDS011;31720;52.638;9.216;2023-03-31T13:14:55;2.20;;;1.00;;
32032;SDS011;31720;52.638;9.216;2023-03-31T13:18:01;1.20;;;1.00;;
32032;SDS011;31720;52.638;9.216;2023-03-31T13:21:04;2.97;;;1.92;;
32032;SDS011;31720;52.638;9.216;2023-03-31T13:24:06;2.25;;;0.98;;
32032;SDS011;31720;52.638;9.216;2023-03-31T13:27:23;2.85;;;0.95;;
32032;SDS011;31720;52.638;9.216;2023-03-31T13:30:44;6.18;;;0.90;;
32032;SDS011;31720;52.638;9.216;2023-03-31T13:33:54;3.58;;;0.90;;
32032;SDS011;31720;52.638;9.216;2023-03-31T13:37:03;1.70;;;1.05;;
32032;SDS011;31720;52.638;9.216;2023-03-31T13:44:00;7.00;;;1.40;;
32032;SDS011;31720;52.638;9.216;2023-03-31T13:47:16;1.10;;;0.90;;
32032;SDS011;31720;52.638;9.216;2023-03-31T13:50:43;3.30;;;1.77;;
32032;SDS011;31720;52.638;9.216;2023-03-31T13:54:00;1.52;;;1.10;;
32032;SDS011;31720;52.638;9.216;2023-03-31T13:57:21;8.60;;;1.02;;
32032;SDS011;31720;52.638;9.216;2023-03-31T14:00:44;6.18;;;1.77;;
32032;SDS011;31720;52.638;9.216;2023-03-31T14:03:56;3.65;;;1.15;;
32032;SDS011;31720;52.638;9.216;2023-03-31T14:07:08;2.50;;;1.23;;
32032;SDS011;31720;52.638;9.216;2023-03-31T14:10:25;2.35;;;1.83;;
32032;SDS011;31720;52.638;9.216;2023-03-31T14:13:29;4.70;;;1.58;;
32032;SDS011;31720;52.638;9.216;2023-03-31T14:16:31;4.88;;;1.30;;
32032;SDS011;31720;52.638;9.216;2023-03-31T14:19:40;3.05;;;1.38;;
32032;SDS011;31720;52.638;9.216;2023-03-31T14:22:59;2.05;;;1.30;;
32032;SDS011;31720;52.638;9.216;2023-03-31T14:26:12;4.70;;;1.85;;
32032;SDS011;31720;52.638;9.216;2023-03-31T14:29:22;4.95;;;2.00;;
32032;SDS011;31720;52.638;9.216;2023-03-31T14:32:30;5.37;;;2.07;;
32032;SDS011;31720;52.638;9.216;2023-03-31T14:35:40;8.18;;;2.17;;
32032;SDS011;31720;52.638;9.216;2023-03-31T14:38:47;2.78;;;1.80;;
32032;SDS011;31720;52.638;9.216;2023-03-31T14:41:50;3.50;;;2.00;;
32032;SDS011;31720;52.638;9.216;2023-03-31T14:44:54;2.78;;;1.52;;
32032;SDS011;31720;52.638;9.216;2023-03-31T14:47:57;4.45;;;1.67;;
32032;SDS011;31720;52.638;9.216;2023-03-31T14:51:07;3.15;;;1.30;;
32032;SDS011;31720;52.638;9.216;2023-03-31T14:54:14;11.38;;;2.10;;
32032;SDS011;31720;52.638;9.216;2023-03-31T14:57:18;4.10;;;1.07;;
32032;SDS011;31720;52.638;9.216;2023-03-31T15:00:29;4.47;;;1.65;;
32032;SDS011;31720;52.638;9.216;2023-03-31T15:03:33;5.40;;;1.30;;
32032;SDS011;31720;52.638;9.216;2023-03-31T15:06:36;3.33;;;1.52;;
32032;SDS011;31720;52.638;9.216;2023-03-31T15:09:42;1.70;;;1.10;;
32032;SDS011;31720;52.638;9.216;2023-03-31T15:12:48;4.47;;;1.00;;
32032;SDS011;31720;52.638;9.216;2023-03-31T15:15:50;3.67;;;1.48;;
32032;SDS011;31720;52.638;9.216;2023-03-31T15:18:52;2.00;;;1.23;;
32032;SDS011;31720;52.638;9.216;2023-03-31T15:21:55;2.35;;;1.27;;
32032;SDS011;31720;52.638;9.216;2023-03-31T15:25:02;3.72;;;1.35;;
32032;SDS011;31720;52.638;9.216;2023-03-31T15:28:04;6.78;;;1.45;;
32032;SDS011;31720;52.638;9.216;2023-03-31T15:31:09;3.65;;;1.45;;
32032;SDS011;31720;52.638;9.216;2023-03-31T15:34:14;3.30;;;1.35;;
32032;SDS011;31720;52.638;9.216;2023-03-31T15:37:21;4.32;;;1.23;;
32032;SDS011;31720;52.638;9.216;2023-03-31T15:40:28;8.05;;;1.83;;
32032;SDS011;31720;52.638;9.216;2023-03-31T15:43:41;3.00;;;1.05;;
32032;SDS011;31720;52.638;9.216;2023-03-31T15:46:54;1.80;;;0.88;;
32032;SDS011;31720;52.638;9.216;2023-03-31T15:50:02;3.63;;;1.05;;
32032;SDS011;31720;52.638;9.216;2023-03-31T15:53:22;2.75;;;1.45;;
32032;SDS011;31720;52.638;9.216;2023-03-31T15:56:29;2.33;;;1.08;;
32032;SDS011;31720;52.638;9.216;2023-03-31T15:59:42;2.15;;;1.20;;
32032;SDS011;31720;52.638;9.216;2023-03-31T16:02:45;3.28;;;1.08;;
32032;SDS011;31720;52.638;9.216;2023-03-31T16:05:48;4.35;;;1.35;;
32032;SDS011;31720;52.638;9.216;2023-03-31T16:08:55;8.45;;;1.02;;
32032;SDS011;31720;52.638;9.216;2023-03-31T16:12:01;3.10;;;0.93;;
32032;SDS011;31720;52.638;9.216;2023-03-31T16:15:11;2.03;;;1.20;;
32032;SDS011;31720;52.638;9.216;2023-03-31T16:18:16;6.43;;;2.25;;
32032;SDS011;31720;52.638;9.216;2023-03-31T16:21:27;2.67;;;1.02;;
32032;SDS011;31720;52.638;9.216;2023-03-31T16:24:33;1.92;;;1.00;;
32032;SDS011;31720;52.638;9.216;2023-03-31T16:27:41;1.58;;;0.80;;
32032;SDS011;31720;52.638;9.216;2023-03-31T16:30:45;5.22;;;0.88;;
32032;SDS011;31720;52.638;9.216;2023-03-31T16:33:56;0.98;;;0.80;;
32032;SDS011;31720;52.638;9.216;2023-03-31T16:36:57;2.38;;;0.65;;
32032;SDS011;31720;52.638;9.216;2023-03-31T16:39:59;2.83;;;0.80;;
32032;SDS011;31720;52.638;9.216;2023-03-31T16:43:09;2.38;;;0.90;;
32032;SDS011;31720;52.638;9.216;2023-03-31T16:46:11;5.25;;;1.30;;
32032;SDS011;31720;52.638;9.216;2023-03-31T16:49:13;2.58;;;1.35;;
32032;SDS011;31720;52.638;9.216;2023-03-31T16:52:14;7.75;;;1.42;;
32032;SDS011;31720;52.638;9.216;2023-03-31T16:55:16;9.65;;;3.13;;
32032;SDS011;31720;52.638;9.216;2023-03-31T16:58:18;4.65;;;1.90;;
32032;SDS011;31720;52.638;9.216;2023-03-31T17:01:20;2.47;;;1.20;;
32032;SDS011;31720;52.638;9.216;2023-03-31T17:04:22;1.42;;;1.33;;
32032;SDS011;31720;52.638;9.216;2023-03-31T17:07:23;1.92;;;0.90;;
32032;SDS011;31720;52.638;9.216;2023-03-31T17:10:24;1.40;;;0.75;;
32032;SDS011;31720;52.638;9.216;2023-03-31T17:13:27;1.27;;;0.73;;
32032;SDS011;31720;52.638;9.216;2023-03-31T17:16:29;2.97;;;0.95;;
32032;SDS011;31720;52.638;9.216;2023-03-31T17:19:30;3.33;;;0.98;;
32032;SDS011;31720;52.638;9.216;2023-03-31T17:22:32;4.38;;;1.38;;
32032;SDS011;31720;52.638;9.216;2023-03-31T17:25:33;4.03;;;1.25;;
32032;SDS011;31720;52.638;9.216;2023-03-31T17:28:36;4.68;;;1.55;;
32032;SDS011;31720;52.638;9.216;2023-03-31T17:31:38;3.65;;;1.30;;
32032;SDS011;31720;52.638;9.216;2023-03-31T17:34:39;3.42;;;2.08;;
32032;SDS011;31720;52.638;9.216;2023-03-31T17:37:41;2.70;;;1.42;;
32032;SDS011;31720;52.638;9.216;2023-03-31T17:40:43;2.67;;;1.10;;
32032;SDS011;31720;52.638;9.216;2023-03-31T17:43:47;2.67;;;1.58;;
32032;SDS011;31720;52.638;9.216;2023-03-31T17:46:49;6.45;;;1.35;;
32032;SDS011;31720;52.638;9.216;2023-03-31T17:49:50;3.88;;;1.50;;
32032;SDS011;31720;52.638;9.216;2023-03-31T17:52:52;2.80;;;1.52;;
32032;SDS011;31720;52.638;9.216;2023-03-31T17:55:54;1.95;;;1.25;;
32032;SDS011;31720;52.638;9.216;2023-03-31T17:58:57;2.53;;;1.98;;
32032;SDS011;31720;52.638;9.216;2023-03-31T18:01:59;2.67;;;1.50;;
32032;SDS011;31720;52.638;9.216;2023-03-31T18:05:00;3.58;;;1.70;;
32032;SDS011;31720;52.638;9.216;2023-03-31T18:08:02;2.00;;;1.48;;
32032;SDS011;31720;52.638;9.216;2023-03-31T18:11:04;2.45;;;1.20;;
32032;SDS011;31720;52.638;9.216;2023-03-31T18:14:08;4.57;;;1.38;;
32032;SDS011;31720;52.638;9.216;2023-03-31T18:17:09;1.10;;;1.00;;
32032;SDS011;31720;52.638;9.216;2023-03-31T18:20:13;1.23;;;1.13;;
32032;SDS011;31720;52.638;9.216;2023-03-31T18:23:15;6.18;;;1.50;;
32032;SDS011;31720;52.638;9.216;2023-03-31T18:26:16;5.03;;;1.83;;
32032;SDS011;31720;52.638;9.216;2023-03-31T18:29:22;2.35;;;1.50;;
32032;SDS011;31720;52.638;9.216;2023-03-31T18:32:23;2.33;;;1.38;;
32032;SDS011;31720;52.638;9.216;2023-03-31T18:35:24;2.00;;;1.40;;
32032;SDS011;31720;52.638;9.216;2023-03-31T18:38:26;2.03;;;1.00;;
32032;SDS011;31720;52.638;9.216;2023-03-31T18:41:28;2.50;;;1.70;;
32032;SDS011;31720;52.638;9.216;2023-03-31T18:44:30;3.30;;;1.45;;
32032;SDS011;31720;52.638;9.216;2023-03-31T18:47:32;2.53;;;1.70;;
32032;SDS011;31720;52.638;9.216;2023-03-31T18:50:33;3.13;;;1.90;;
32032;SDS011;31720;52.638;9.216;2023-03-31T18:53:35;3.30;;;1.50;;
32032;SDS011;31720;52.638;9.216;2023-03-31T18:56:36;5.65;;;2.05;;
32032;SDS011;31720;52.638;9.216;2023-03-31T18:59:39;5.25;;;2.20;;
32032;SDS011;31720;52.638;9.216;2023-03-31T19:02:40;3.10;;;1.60;;
32032;SDS011;31720;52.638;9.216;2023-03-31T19:05:41;4.72;;;1.80;;